createdAt,value
2022-10-16T00:02:53.975Z,88.62
2022-10-16T00:07:54.743Z,88.45
2022-10-16T00:12:57.203Z,89.11
2022-10-16T00:17:59.566Z,89.30
2022-10-16T00:23:07.845Z,89.24
2022-10-16T00:28:08.807Z,89.87
2022-10-16T00:33:16.675Z,89.97
2022-10-16T00:38:17.575Z,89.90
2022-10-16T00:43:39.655Z,89.61
2022-10-16T00:48:42.262Z,90.11
2022-10-16T00:53:43.195Z,89.92
2022-10-16T00:58:48.782Z,89.86
2022-10-16T01:03:52.289Z,89.54
2022-10-16T01:09:17.066Z,89.19
2022-10-16T01:14:24.384Z,88.79
2022-10-16T01:19:50.793Z,88.80
2022-10-16T01:24:52.573Z,88.53
2022-10-16T01:30:01.313Z,87.98
2022-10-16T01:35:11.507Z,88.27
2022-10-16T01:40:15.332Z,88.04
2022-10-16T01:45:21.971Z,87.57
2022-10-16T01:50:23.637Z,87.40
2022-10-16T01:55:29.132Z,87.32
2022-10-16T02:00:32.533Z,87.26
2022-10-16T02:05:42.031Z,87.12
2022-10-16T02:10:43.217Z,86.64
2022-10-16T02:15:50.103Z,86.55
2022-10-16T02:20:54.905Z,87.06
2022-10-16T02:26:01.882Z,86.97
2022-10-16T02:31:13.518Z,86.67
2022-10-16T02:36:14.792Z,86.66
2022-10-16T02:41:19.940Z,86.77
2022-10-16T02:46:22.183Z,86.75
2022-10-16T02:51:22.942Z,86.20
2022-10-16T02:56:24.340Z,86.70
2022-10-16T03:01:26.864Z,86.46
2022-10-16T03:06:27.714Z,86.28
2022-10-16T03:11:29.195Z,86.25
2022-10-16T03:16:31.551Z,86.28
2022-10-16T03:21:32.352Z,86.65
2022-10-16T03:26:33.265Z,86.66
2022-10-16T03:31:35.748Z,87.06
2022-10-16T03:36:36.641Z,87.33
2022-10-16T03:41:37.412Z,87.25
2022-10-16T03:46:39.671Z,87.29
2022-10-16T03:51:40.451Z,87.47
2022-10-16T03:56:41.267Z,88.19
2022-10-16T04:01:43.464Z,88.64
2022-10-16T04:06:44.244Z,88.36
2022-10-16T04:11:45.049Z,88.22
2022-10-16T04:16:47.161Z,88.40
2022-10-16T04:21:47.977Z,88.30
2022-10-16T04:26:48.797Z,88.53
2022-10-16T04:31:51.013Z,87.85
2022-10-16T04:36:51.981Z,87.84
2022-10-16T04:41:52.756Z,87.79
2022-10-16T04:46:54.892Z,88.43
2022-10-16T04:51:55.668Z,88.37
2022-10-16T04:56:56.540Z,87.97
2022-10-16T05:01:58.799Z,88.27
2022-10-16T05:06:59.594Z,88.15
2022-10-16T05:12:00.397Z,87.74
2022-10-16T05:17:02.900Z,88.01
2022-10-16T05:22:03.721Z,88.19
2022-10-16T05:27:04.681Z,88.68
2022-10-16T05:32:06.814Z,88.38
2022-10-16T05:37:07.734Z,88.62
2022-10-16T05:42:08.659Z,88.51
2022-10-16T05:47:11.748Z,88.63
2022-10-16T05:52:13.607Z,87.87
2022-10-16T05:57:14.535Z,87.74
2022-10-16T06:02:17.008Z,87.76
2022-10-16T06:07:17.969Z,87.84
2022-10-16T06:12:19.265Z,87.52
2022-10-16T06:17:21.440Z,86.84
2022-10-16T06:22:22.427Z,87.08
2022-10-16T06:27:23.337Z,86.73
2022-10-16T06:32:25.631Z,86.35
2022-10-16T06:37:27.070Z,85.80
2022-10-16T06:42:28.382Z,85.10
2022-10-16T06:47:32.027Z,84.75
2022-10-16T06:52:32.892Z,84.12
2022-10-16T06:57:33.786Z,83.17
2022-10-16T07:02:36.025Z,82.30
2022-10-16T07:07:36.853Z,82.29
2022-10-16T07:12:37.705Z,82.65
2022-10-16T07:17:39.875Z,81.59
2022-10-16T07:22:40.801Z,79.59
2022-10-16T07:27:41.625Z,79.20
2022-10-16T07:32:43.760Z,79.79
2022-10-16T07:37:46.773Z,79.44
2022-10-16T07:42:47.558Z,79.67
2022-10-16T07:47:49.721Z,79.80
2022-10-16T07:52:50.508Z,79.29
2022-10-16T07:57:51.427Z,79.05
2022-10-16T08:02:53.575Z,78.38
2022-10-16T08:07:54.349Z,77.53
2022-10-16T08:12:55.591Z,76.25
2022-10-16T08:17:59.847Z,75.60
2022-10-16T08:23:01.045Z,76.28
2022-10-16T08:28:01.892Z,76.35
2022-10-16T08:33:04.699Z,75.84
2022-10-16T08:38:05.628Z,75.12
2022-10-16T08:43:29.633Z,74.05
2022-10-16T08:48:38.854Z,73.24
2022-10-16T08:53:45.273Z,73.32
2022-10-16T09:04:09.649Z,72.31
2022-10-16T09:09:33.538Z,72.81
2022-10-16T09:14:49.331Z,72.88
2022-10-16T09:19:56.366Z,73.47
2022-10-16T09:24:57.427Z,72.89
2022-10-16T09:29:59.829Z,71.51
2022-10-16T09:35:03.127Z,70.35
2022-10-16T09:40:07.478Z,70.08
2022-10-16T09:45:25.074Z,69.02
2022-10-16T09:50:29.578Z,68.38
2022-10-16T09:56:01.209Z,67.38
2022-10-16T10:01:03.412Z,67.56
2022-10-16T10:06:19.518Z,65.27
2022-10-16T10:11:20.412Z,65.03
2022-10-16T10:16:26.028Z,64.44
2022-10-16T10:21:28.272Z,64.24
2022-10-16T10:26:34.403Z,63.15
2022-10-16T10:31:45.155Z,63.90
2022-10-16T10:36:54.454Z,62.72
2022-10-16T10:42:16.333Z,59.44
2022-10-16T10:47:29.172Z,59.17
2022-10-16T10:52:45.390Z,57.92
2022-10-16T10:57:58.985Z,57.08
2022-10-16T11:03:09.586Z,54.57
2022-10-16T11:08:18.038Z,56.79
2022-10-16T11:13:26.810Z,55.81
2022-10-16T11:18:34.602Z,55.95
2022-10-16T11:23:43.572Z,56.00
2022-10-16T11:28:49.813Z,54.54
2022-10-16T11:33:56.918Z,52.91
2022-10-16T11:39:05.256Z,53.61
2022-10-16T11:44:20.591Z,53.19
2022-10-16T11:49:26.293Z,53.76
2022-10-16T11:54:34.542Z,53.66
2022-10-16T11:59:43.442Z,53.79
2022-10-16T12:04:47.998Z,54.23
2022-10-16T12:09:50.588Z,53.68
2022-10-16T12:15:22.464Z,53.90
2022-10-16T12:20:28.315Z,53.71
2022-10-16T12:25:32.629Z,52.77
2022-10-16T12:30:36.552Z,53.48
2022-10-16T12:36:29.339Z,53.42
2022-10-16T12:42:04.028Z,52.94
2022-10-16T12:47:07.574Z,53.85
2022-10-16T12:52:28.454Z,53.21
2022-10-16T12:58:12.192Z,52.42
2022-10-16T13:03:51.600Z,52.14
2022-10-16T13:09:16.882Z,52.73
2022-10-16T13:20:01.558Z,52.57
2022-10-16T13:25:19.884Z,52.75
2022-10-16T13:40:35.634Z,53.57
2022-10-16T13:45:37.937Z,54.21
2022-10-16T13:50:38.790Z,56.43
2022-10-16T13:55:39.723Z,60.09
2022-10-16T14:00:43.498Z,59.84
2022-10-16T14:05:49.423Z,59.27
2022-10-16T14:10:52.898Z,59.15
2022-10-16T14:15:55.981Z,59.29
2022-10-16T14:21:01.515Z,60.18
2022-10-16T14:26:15.342Z,60.03
2022-10-16T14:31:30.761Z,59.96
2022-10-16T14:36:32.540Z,60.73
2022-10-16T14:41:35.720Z,60.78
2022-10-16T14:46:40.019Z,61.84
2022-10-16T14:51:42.001Z,62.11
2022-10-16T14:56:50.811Z,63.88
2022-10-16T15:01:53.201Z,65.47
2022-10-16T15:06:54.001Z,66.01
2022-10-16T15:11:54.920Z,68.48
2022-10-16T15:16:57.131Z,69.60
2022-10-16T15:21:58.263Z,70.44
2022-10-16T15:27:01.253Z,71.07
2022-10-16T15:32:03.536Z,71.45
2022-10-16T15:37:05.638Z,71.85
2022-10-16T15:42:07.050Z,72.85
2022-10-16T15:47:10.138Z,72.66
2022-10-16T15:52:11.042Z,74.74
2022-10-16T15:57:11.869Z,74.98
2022-10-16T16:02:14.064Z,76.37
2022-10-16T16:07:15.325Z,77.41
2022-10-16T16:12:16.143Z,77.47
2022-10-16T16:17:18.740Z,77.91
2022-10-16T16:22:19.835Z,77.73
2022-10-16T16:27:20.839Z,78.30
2022-10-16T16:32:23.906Z,79.90
2022-10-16T16:37:25.071Z,80.79
2022-10-16T16:42:26.793Z,81.18
2022-10-16T16:47:29.276Z,82.14
2022-10-16T16:52:31.387Z,82.30
2022-10-16T16:57:32.330Z,83.42
2022-10-16T17:02:34.802Z,83.27
2022-10-16T17:07:36.498Z,83.98
2022-10-16T17:12:37.388Z,84.15
2022-10-16T17:17:39.690Z,85.18
2022-10-16T17:22:41.619Z,85.71
2022-10-16T17:27:42.414Z,86.29
2022-10-16T17:32:44.637Z,86.29
2022-10-16T17:37:45.545Z,86.65
2022-10-16T17:42:46.382Z,87.22
2022-10-16T17:47:48.634Z,87.43
2022-10-16T17:52:49.444Z,87.81
2022-10-16T17:57:50.336Z,87.58
2022-10-16T18:02:52.595Z,87.97
2022-10-16T18:07:53.579Z,87.92
2022-10-16T18:12:54.454Z,87.87
2022-10-16T18:17:56.723Z,87.59
2022-10-16T18:22:57.689Z,87.60
2022-10-16T18:27:58.513Z,88.14
2022-10-16T18:33:00.741Z,88.08
2022-10-16T18:38:01.649Z,88.45
2022-10-16T18:43:02.543Z,88.32
2022-10-16T18:48:05.138Z,87.98
2022-10-16T18:53:05.962Z,87.95
2022-10-16T18:58:06.949Z,88.68
2022-10-16T19:03:09.239Z,88.91
2022-10-16T19:08:10.085Z,89.18
2022-10-16T19:13:11.189Z,89.99
2022-10-16T19:18:13.508Z,89.82
2022-10-16T19:23:14.630Z,90.11
2022-10-16T19:28:15.530Z,89.72
2022-10-16T19:33:17.832Z,90.22
2022-10-16T19:38:18.677Z,90.55
2022-10-16T19:43:19.541Z,90.51
2022-10-16T19:53:29.276Z,90.03
2022-10-16T19:58:30.210Z,89.98
2022-10-16T20:03:32.419Z,90.18
2022-10-16T20:08:33.586Z,90.00
2022-10-16T20:13:38.360Z,89.91
2022-10-16T20:18:43.133Z,90.03
2022-10-16T20:23:44.734Z,89.19
2022-10-16T20:28:45.895Z,89.89
2022-10-16T20:33:48.148Z,89.44
2022-10-16T20:38:49.091Z,89.37
2022-10-16T20:43:53.199Z,88.97
2022-10-16T20:49:02.340Z,89.01
2022-10-16T20:54:12.904Z,89.29
2022-10-16T20:59:13.912Z,89.06
2022-10-16T21:04:17.093Z,89.12
2022-10-16T21:09:18.140Z,89.47
2022-10-16T21:14:18.969Z,89.74
2022-10-16T21:19:21.092Z,90.23
2022-10-16T21:24:22.030Z,90.21
2022-10-16T21:29:22.808Z,90.36
2022-10-16T21:34:25.126Z,90.23
2022-10-16T21:39:25.937Z,90.48
2022-10-16T21:44:26.733Z,90.97
2022-10-16T21:49:29.070Z,90.63
2022-10-16T21:54:29.915Z,91.35
2022-10-16T21:59:30.879Z,90.93
2022-10-16T22:04:33.179Z,90.69
2022-10-16T22:09:33.995Z,91.11
2022-10-16T22:14:34.847Z,90.94
2022-10-16T22:19:37.074Z,90.83
2022-10-16T22:24:38.425Z,91.02
2022-10-16T22:29:39.217Z,91.36
2022-10-16T22:34:41.416Z,91.32
2022-10-16T22:39:42.196Z,91.92
2022-10-16T22:44:42.973Z,91.79
2022-10-16T22:49:45.117Z,91.75
2022-10-16T22:54:45.903Z,91.33
2022-10-16T22:59:48.468Z,91.41
2022-10-16T23:04:50.840Z,91.66
2022-10-16T23:09:51.677Z,91.42
2022-10-16T23:14:52.572Z,91.60
2022-10-16T23:19:54.722Z,91.52
2022-10-16T23:24:55.552Z,91.30
2022-10-16T23:29:56.443Z,91.05
2022-10-16T23:34:58.578Z,91.30
2022-10-16T23:39:59.352Z,91.35
2022-10-16T23:45:00.328Z,91.54
2022-10-16T23:50:02.637Z,91.30
2022-10-16T23:55:03.622Z,91.47
